Terminal Aerodrome Forecast
Issued by NWS Charleston, WV

Current Version | Previous Version | Graphics & Text | Print | Product List | Glossary On
Versions: 1 2 3 4 5 6 7 8 9 10 11 12 13 14 15 16 17 18 19 20 21 22 23 24 25
000
FTUS41 KRLX 261729
TAFHTS
TAF
KHTS 261729Z 2618/2718 19007KT P6SM SCT060
     FM262000 19006KT P6SM SHRA VCTS BKN050CB
     FM270400 19005KT 6SM SHRA BR VCTS BKN035CB
     FM271000 VRB03KT P6SM VCTS OVC040CB
     FM271300 21005KT P6SM BKN050
     FM271700 22007KT P6SM VCTS SCT050CB=

USA.gov is the U.S. government's official web portal to all federal, state and local government web resources and services.